Terminal Aerodrome Forecast
Issued by NWS

Home | Current Version | Previous Version | Text Only | Print | Product List | Glossary On
Versions: 1 2 3 4 5 6 7 8 9 10 11 12 13 14 15 16 17 18 19 20 21 22 23
000
FTUS43 KIND 221219 AAA
TAFHUF
TAF AMD
KHUF 221219Z 2212/2312 06012KT P6SM VCSH OVC010
      TEMPO 2212/2214 3SM -RA BR
     FM221600 08011KT P6SM OVC015
     FM222100 09008KT P6SM BKN020
     FM230200 09006KT P6SM VCSH OVC015
     FM230500 12007KT 3SM RA OVC010
     FM230900 14008KT 3SM RA OVC003 WS020/20035KT=

USA.gov is the U.S. government's official web portal to all federal, state and local government web resources and services.